createdAt,value
2023-04-04T00:02:09.060Z,5.60
2023-04-04T00:04:58.701Z,4.80
2023-04-04T00:07:47.676Z,5.20
2023-04-04T00:10:36.261Z,5.20
2023-04-04T00:13:26.520Z,6.00
2023-04-04T00:16:15.357Z,6.30
2023-04-04T00:19:04.356Z,5.40
2023-04-04T00:21:52.995Z,5.20
2023-04-04T00:24:41.945Z,5.00
2023-04-04T00:27:30.955Z,5.80
2023-04-04T00:30:19.831Z,5.40
2023-04-04T00:33:08.716Z,5.20
2023-04-04T00:35:58.023Z,5.20
2023-04-04T00:38:46.980Z,5.00
2023-04-04T00:41:36.137Z,5.10
2023-04-04T00:44:24.871Z,5.30
2023-04-04T00:47:13.886Z,5.60
2023-04-04T00:50:02.923Z,4.80
2023-04-04T00:52:51.581Z,5.10
2023-04-04T00:55:40.570Z,5.30
2023-04-04T00:58:30.911Z,5.90
2023-04-04T01:06:11.677Z,5.20
2023-04-04T01:09:00.590Z,5.10
2023-04-04T01:11:49.712Z,4.80
2023-04-04T01:14:40.501Z,4.70
2023-04-04T01:17:30.090Z,4.60
2023-04-04T01:20:25.078Z,4.20
2023-04-04T01:23:16.948Z,5.10
2023-04-04T01:26:08.331Z,4.60
2023-04-04T01:28:59.001Z,4.70
2023-04-04T01:32:06.997Z,4.50
2023-04-04T01:35:21.692Z,4.80
2023-04-04T01:38:21.190Z,4.50
2023-04-04T01:41:12.509Z,4.30
2023-04-04T01:44:06.455Z,4.90
2023-04-04T01:46:56.207Z,4.90
2023-04-04T01:49:45.513Z,4.90
2023-04-04T01:52:36.107Z,4.20
2023-04-04T01:55:24.782Z,4.40
2023-04-04T01:58:13.664Z,4.40
2023-04-04T02:01:02.869Z,4.50
2023-04-04T02:03:51.572Z,4.90
2023-04-04T02:06:40.511Z,4.60
2023-04-04T02:09:29.428Z,4.30
2023-04-04T02:12:18.378Z,4.80
2023-04-04T02:15:07.465Z,4.50
2023-04-04T02:17:56.792Z,5.50
2023-04-04T02:20:45.650Z,5.10
2023-04-04T02:23:34.471Z,5.40
2023-04-04T02:26:23.172Z,5.50
2023-04-04T02:29:11.742Z,4.60
2023-04-04T02:32:00.423Z,4.50
2023-04-04T02:34:49.578Z,4.60
2023-04-04T02:37:38.335Z,5.60
2023-04-04T02:40:29.665Z,5.20
2023-04-04T02:43:18.629Z,5.30
2023-04-04T02:46:20.389Z,4.80
2023-04-04T02:49:10.754Z,4.90
2023-04-04T02:52:01.382Z,5.40
2023-04-04T02:54:53.686Z,5.70
2023-04-04T02:57:52.917Z,4.10
2023-04-04T03:00:42.053Z,4.40
2023-04-04T03:03:31.584Z,4.80
2023-04-04T03:06:21.405Z,4.90
2023-04-04T03:09:11.259Z,4.40
2023-04-04T03:12:01.409Z,3.90
2023-04-04T03:14:50.029Z,5.00
2023-04-04T03:17:40.871Z,4.00
2023-04-04T03:20:31.407Z,4.40
2023-04-04T03:23:20.203Z,4.30
2023-04-04T03:26:09.661Z,3.90
2023-04-04T03:28:58.886Z,4.60
2023-04-04T03:31:47.966Z,4.90
2023-04-04T03:34:36.814Z,3.90
2023-04-04T03:37:25.636Z,4.50
2023-04-04T03:40:14.855Z,4.20
2023-04-04T03:43:06.629Z,4.40
2023-04-04T03:48:43.954Z,4.50
2023-04-04T03:51:32.753Z,4.30
2023-04-04T03:54:22.505Z,4.40
2023-04-04T03:57:11.163Z,5.30
2023-04-04T04:00:00.461Z,5.10
2023-04-04T04:02:49.555Z,5.20
2023-04-04T04:05:38.250Z,4.30
2023-04-04T04:08:28.040Z,4.40
2023-04-04T04:11:16.753Z,5.10
2023-04-04T04:14:06.152Z,4.50
2023-04-04T04:16:55.581Z,4.70
2023-04-04T04:19:45.137Z,4.30
2023-04-04T04:22:34.390Z,3.70
2023-04-04T04:25:23.713Z,4.80
2023-04-04T04:28:33.532Z,4.20
2023-04-04T04:31:24.277Z,4.50
2023-04-04T04:34:13.727Z,4.50
2023-04-04T04:37:02.746Z,3.70
2023-04-04T04:40:14.241Z,4.40
2023-04-04T04:43:14.066Z,4.30
2023-04-04T04:46:03.049Z,4.70
2023-04-04T04:48:52.159Z,4.10
2023-04-04T04:51:45.232Z,3.20
2023-04-04T04:54:34.318Z,4.40
2023-04-04T04:57:23.302Z,4.30
2023-04-04T05:00:13.406Z,4.70
2023-04-04T05:03:07.076Z,3.60
2023-04-04T05:06:09.794Z,4.30
2023-04-04T05:08:58.914Z,3.90
2023-04-04T05:11:51.479Z,3.90
2023-04-04T05:14:42.610Z,4.30
2023-04-04T05:17:32.099Z,4.20
2023-04-04T05:20:25.191Z,4.80
2023-04-04T05:23:14.351Z,4.80
2023-04-04T05:26:03.908Z,4.10
2023-04-04T05:28:56.136Z,4.30
2023-04-04T05:31:45.721Z,3.90
2023-04-04T05:34:38.931Z,4.60
2023-04-04T05:37:29.975Z,3.20
2023-04-04T05:40:19.351Z,3.70
2023-04-04T05:43:12.660Z,3.60
2023-04-04T05:46:10.411Z,4.00
2023-04-04T05:49:03.970Z,3.50
2023-04-04T05:51:56.998Z,3.50
2023-04-04T05:54:47.509Z,3.50
2023-04-04T05:57:51.011Z,3.10
2023-04-04T06:00:44.333Z,4.20
2023-04-04T06:03:33.651Z,3.00
2023-04-04T06:06:23.749Z,3.40
2023-04-04T06:09:12.647Z,3.10
2023-04-04T06:12:01.388Z,2.90
2023-04-04T06:14:50.319Z,3.70
2023-04-04T06:17:42.669Z,3.40
2023-04-04T06:20:32.051Z,4.00
2023-04-04T06:23:21.043Z,4.00
2023-04-04T06:29:03.727Z,3.00
2023-04-04T06:31:55.853Z,3.00
2023-04-04T06:34:55.142Z,3.80
2023-04-04T06:37:58.001Z,3.20
2023-04-04T06:40:48.043Z,2.90
2023-04-04T06:43:36.797Z,3.00
2023-04-04T06:46:27.138Z,3.30
2023-04-04T06:49:15.806Z,3.40
2023-04-04T06:52:05.419Z,4.50
2023-04-04T06:54:54.125Z,2.80
2023-04-04T06:57:43.201Z,3.00
2023-04-04T07:00:31.874Z,2.90
2023-04-04T07:03:20.518Z,3.10
2023-04-04T07:06:09.165Z,2.90
2023-04-04T07:08:58.152Z,3.00
2023-04-04T07:11:47.070Z,3.20
2023-04-04T07:14:35.688Z,3.40
2023-04-04T07:17:25.613Z,3.90
2023-04-04T07:20:14.476Z,2.90
2023-04-04T07:23:03.548Z,4.30
2023-04-04T07:25:52.353Z,3.00
2023-04-04T07:28:41.155Z,4.60
2023-04-04T07:31:29.881Z,4.30
2023-04-04T07:34:20.130Z,3.70
2023-04-04T07:37:08.800Z,4.40
2023-04-04T07:39:57.667Z,4.80
2023-04-04T07:42:49.790Z,4.40
2023-04-04T07:45:38.669Z,4.50
2023-04-04T07:48:28.029Z,3.90
2023-04-04T07:51:16.935Z,3.30
2023-04-04T07:54:05.953Z,3.80
2023-04-04T07:56:54.665Z,3.50
2023-04-04T07:59:43.935Z,3.30
2023-04-04T08:02:33.420Z,3.20
2023-04-04T08:05:22.388Z,3.60
2023-04-04T08:08:11.213Z,3.50
2023-04-04T08:10:59.879Z,3.70
2023-04-04T08:13:48.955Z,7.30
2023-04-04T08:16:42.180Z,4.00
2023-04-04T08:19:31.165Z,3.10
2023-04-04T08:22:20.197Z,2.60
2023-04-04T08:25:12.968Z,3.10
2023-04-04T08:28:04.779Z,2.50
2023-04-04T08:30:55.224Z,2.90
2023-04-04T08:33:47.574Z,2.40
2023-04-04T08:36:36.604Z,3.30
2023-04-04T08:39:25.498Z,2.70
2023-04-04T08:42:17.081Z,2.40
2023-04-04T08:45:07.911Z,2.90
2023-04-04T08:47:59.127Z,3.20
2023-04-04T08:50:49.490Z,3.70
2023-04-04T08:53:39.577Z,2.60
2023-04-04T08:56:28.723Z,3.00
2023-04-04T08:59:18.903Z,2.80
2023-04-04T09:02:11.085Z,2.60
2023-04-04T09:05:09.611Z,3.10
2023-04-04T09:07:59.595Z,2.80
2023-04-04T09:10:49.296Z,3.10
2023-04-04T09:13:41.413Z,2.80
2023-04-04T09:16:30.506Z,3.10
2023-04-04T09:19:19.362Z,2.70
2023-04-04T09:22:09.356Z,2.80
2023-04-04T09:24:58.110Z,2.90
2023-04-04T09:27:49.392Z,2.30
2023-04-04T09:30:38.876Z,2.70
2023-04-04T09:33:28.097Z,2.60
2023-04-04T09:36:18.349Z,2.70
2023-04-04T09:39:08.599Z,2.70
2023-04-04T09:41:58.932Z,3.00
2023-04-04T09:44:47.742Z,2.80
2023-04-04T09:47:42.849Z,2.80
2023-04-04T09:50:33.702Z,2.70
2023-04-04T09:53:22.321Z,2.40
2023-04-04T09:56:11.454Z,2.10
2023-04-04T09:59:04.647Z,2.70
2023-04-04T10:01:55.303Z,2.30
2023-04-04T10:04:47.226Z,2.40
2023-04-04T10:07:40.735Z,2.10
2023-04-04T10:10:31.543Z,1.90
2023-04-04T10:13:41.792Z,2.60
2023-04-04T10:16:40.130Z,3.60
2023-04-04T10:19:29.084Z,2.50
2023-04-04T10:22:17.972Z,1.90
2023-04-04T10:25:07.905Z,1.80
2023-04-04T10:27:56.862Z,2.50
2023-04-04T10:31:06.372Z,2.20
2023-04-04T10:34:17.705Z,3.80
2023-04-04T10:37:13.756Z,2.80
2023-04-04T10:40:10.253Z,2.00
2023-04-04T10:43:03.095Z,1.80
2023-04-04T10:45:52.253Z,2.70
2023-04-04T10:48:42.832Z,2.20
2023-04-04T10:51:35.361Z,2.60
2023-04-04T10:54:29.506Z,2.70
2023-04-04T10:57:18.614Z,3.10
2023-04-04T11:00:10.810Z,3.70
2023-04-04T11:03:02.211Z,2.50
2023-04-04T11:05:51.945Z,2.40
2023-04-04T11:08:40.592Z,2.60
2023-04-04T11:11:30.389Z,2.00
2023-04-04T11:14:29.898Z,2.00
2023-04-04T11:17:18.476Z,3.20
2023-04-04T11:20:27.554Z,19.60
2023-04-04T11:23:22.016Z,2.90
2023-04-04T11:26:10.690Z,4.90
2023-04-04T11:29:00.401Z,2.50
2023-04-04T11:31:50.800Z,3.80
2023-04-04T11:34:39.763Z,33.10
2023-04-04T11:37:31.508Z,9.10
2023-04-04T11:40:20.752Z,2.60
2023-04-04T11:43:12.073Z,2.20
2023-04-04T11:46:08.925Z,3.60
2023-04-04T11:48:58.353Z,4.20
2023-04-04T11:51:47.350Z,2.20
2023-04-04T11:54:37.788Z,1.90
2023-04-04T11:57:27.550Z,2.20
2023-04-04T12:00:39.358Z,3.30
2023-04-04T12:03:29.418Z,2.40
2023-04-04T12:06:18.218Z,1.70
2023-04-04T12:09:07.262Z,2.70
2023-04-04T12:11:58.171Z,2.00
2023-04-04T12:14:47.841Z,3.50
2023-04-04T12:17:40.746Z,5.10
2023-04-04T12:20:30.875Z,4.00
2023-04-04T12:23:19.848Z,4.10
2023-04-04T12:26:09.925Z,7.70
2023-04-04T12:28:59.744Z,3.50
2023-04-04T12:31:54.365Z,4.50
2023-04-04T12:34:49.033Z,3.40
2023-04-04T12:37:40.414Z,11.10
2023-04-04T12:40:33.607Z,8.50
2023-04-04T12:43:22.381Z,3.70
2023-04-04T12:46:11.827Z,3.80
2023-04-04T12:49:01.091Z,2.00
2023-04-04T12:51:53.388Z,3.10
2023-04-04T12:54:42.880Z,5.90
2023-04-04T12:57:33.965Z,4.90
2023-04-04T13:00:23.688Z,8.70
2023-04-04T13:03:15.582Z,11.60
2023-04-04T13:06:12.028Z,5.30
2023-04-04T13:09:01.255Z,6.70
2023-04-04T13:12:02.821Z,3.60
2023-04-04T13:15:02.450Z,3.60
2023-04-04T13:17:51.662Z,3.80
2023-04-04T13:20:40.555Z,5.90
2023-04-04T13:23:33.705Z,5.60
2023-04-04T13:26:22.695Z,4.60
2023-04-04T13:29:11.327Z,5.40
2023-04-04T13:32:01.731Z,4.00
2023-04-04T13:34:50.635Z,3.80
2023-04-04T13:37:39.431Z,3.80
2023-04-04T13:40:28.135Z,3.50
2023-04-04T13:43:16.853Z,3.60
2023-04-04T13:46:05.804Z,3.80
2023-04-04T13:48:54.607Z,2.70
2023-04-04T13:51:43.137Z,2.20
2023-04-04T13:54:32.033Z,2.30
2023-04-04T13:57:20.866Z,5.90
2023-04-04T14:00:10.004Z,4.10
2023-04-04T14:02:59.438Z,3.20
2023-04-04T14:05:48.125Z,3.30
2023-04-04T14:08:37.867Z,2.40
2023-04-04T14:11:31.085Z,2.20
2023-04-04T14:14:19.947Z,3.00
2023-04-04T14:17:08.945Z,4.60
2023-04-04T14:19:57.630Z,2.70
2023-04-04T14:22:46.288Z,3.50
2023-04-04T14:25:36.104Z,3.30
2023-04-04T14:28:25.325Z,5.00
2023-04-04T14:31:14.092Z,4.70
2023-04-04T14:34:04.211Z,6.60
2023-04-04T14:36:53.100Z,6.30
2023-04-04T14:39:41.900Z,6.10
2023-04-04T14:42:31.097Z,10.20
2023-04-04T14:45:19.892Z,5.60
2023-04-04T14:48:08.626Z,2.60
2023-04-04T14:50:57.291Z,3.70
2023-04-04T14:53:46.685Z,4.00
2023-04-04T14:56:36.247Z,17.20
2023-04-04T14:59:25.005Z,8.60
2023-04-04T15:02:13.656Z,6.00
2023-04-04T15:05:02.337Z,4.00
2023-04-04T15:07:51.021Z,12.20
2023-04-04T15:10:39.954Z,10.60
2023-04-04T15:13:28.695Z,5.00
2023-04-04T15:16:17.768Z,5.10
2023-04-04T15:19:06.518Z,4.30
2023-04-04T15:21:57.198Z,5.60
2023-04-04T15:24:45.976Z,4.60
2023-04-04T15:27:34.798Z,5.30
2023-04-04T15:30:24.266Z,5.00
2023-04-04T15:33:13.283Z,6.20
2023-04-04T15:36:02.064Z,7.30
2023-04-04T15:38:51.235Z,5.50
2023-04-04T15:41:40.523Z,4.80
2023-04-04T15:44:29.479Z,6.30
2023-04-04T15:47:18.059Z,22.00
2023-04-04T15:50:07.320Z,14.30
2023-04-04T15:52:56.358Z,7.10
2023-04-04T15:55:45.305Z,6.80
2023-04-04T15:58:33.900Z,6.50
2023-04-04T16:01:23.586Z,6.70
2023-04-04T16:04:12.128Z,4.60
2023-04-04T16:07:01.143Z,3.00
2023-04-04T16:09:49.688Z,5.10
2023-04-04T16:12:38.479Z,8.80
2023-04-04T16:15:27.160Z,3.40
2023-04-04T16:18:16.205Z,3.30
2023-04-04T16:21:05.012Z,3.00
2023-04-04T16:23:54.939Z,3.10
2023-04-04T16:26:47.369Z,3.40
2023-04-04T16:29:36.363Z,9.50
2023-04-04T16:32:25.180Z,6.10
2023-04-04T16:35:15.261Z,9.50
2023-04-04T16:38:03.871Z,11.20
2023-04-04T16:40:52.626Z,9.20
2023-04-04T16:43:42.940Z,10.20
2023-04-04T16:46:32.266Z,7.10
2023-04-04T16:49:20.870Z,6.10
2023-04-04T16:52:11.010Z,5.90
2023-04-04T16:54:59.530Z,7.70
2023-04-04T16:57:48.439Z,7.70
2023-04-04T17:00:37.456Z,8.40
2023-04-04T17:03:26.494Z,7.70
2023-04-04T17:06:15.092Z,9.00
2023-04-04T17:09:04.178Z,10.80
2023-04-04T17:11:52.677Z,9.20
2023-04-04T17:14:41.970Z,6.60
2023-04-04T17:17:30.750Z,5.60
2023-04-04T17:20:19.725Z,5.30
2023-04-04T17:23:08.362Z,3.90
2023-04-04T17:25:57.144Z,4.30
2023-04-04T17:28:45.771Z,3.90
2023-04-04T17:31:34.826Z,4.10
2023-04-04T17:34:24.223Z,4.00
2023-04-04T17:37:13.338Z,3.60
2023-04-04T17:40:04.526Z,4.20
2023-04-04T17:45:45.174Z,4.20
2023-04-04T17:48:36.763Z,3.90
2023-04-04T17:54:15.283Z,4.50
2023-04-04T17:57:07.172Z,4.50
2023-04-04T17:59:56.045Z,4.50
2023-04-04T18:02:44.727Z,5.80
2023-04-04T18:05:34.068Z,7.10
2023-04-04T18:08:22.751Z,7.10
2023-04-04T18:11:12.221Z,7.00
2023-04-04T18:14:00.688Z,7.60
2023-04-04T18:16:49.738Z,7.90
2023-04-04T18:19:39.123Z,9.90
2023-04-04T18:22:29.432Z,10.10
2023-04-04T18:25:18.094Z,10.30
2023-04-04T18:28:07.534Z,10.80
2023-04-04T18:30:56.665Z,10.40
2023-04-04T18:33:45.786Z,11.20
2023-04-04T18:36:36.289Z,11.20
2023-04-04T18:39:25.504Z,11.80
2023-04-04T18:42:15.977Z,11.60
2023-04-04T18:45:06.905Z,11.00
2023-04-04T18:47:55.752Z,10.80
2023-04-04T18:50:45.780Z,9.70
2023-04-04T18:53:34.443Z,11.80
2023-04-04T18:56:23.427Z,11.00
2023-04-04T18:59:11.941Z,10.30
2023-04-04T19:02:01.266Z,9.30
2023-04-04T19:04:52.820Z,8.40
2023-04-04T19:07:42.428Z,8.10
2023-04-04T19:10:31.647Z,7.90
2023-04-04T19:13:20.749Z,7.80
2023-04-04T19:16:09.321Z,7.20
2023-04-04T19:18:58.331Z,7.40
2023-04-04T19:21:47.140Z,6.60
2023-04-04T19:24:36.339Z,8.00
2023-04-04T19:27:24.911Z,7.50
2023-04-04T19:30:44.336Z,7.90
2023-04-04T19:33:33.569Z,7.10
2023-04-04T19:36:24.344Z,8.90
2023-04-04T19:39:19.547Z,8.20
2023-04-04T19:42:09.661Z,9.10
2023-04-04T19:44:58.188Z,8.60
2023-04-04T19:47:47.330Z,9.10
2023-04-04T19:50:38.130Z,11.60
2023-04-04T19:53:29.683Z,13.50
2023-04-04T19:56:19.512Z,13.40
2023-04-04T19:59:10.801Z,13.60
2023-04-04T20:02:00.898Z,13.00
2023-04-04T20:04:49.958Z,12.70
2023-04-04T20:07:38.683Z,12.50
2023-04-04T20:10:39.783Z,12.50
2023-04-04T20:13:28.590Z,13.80
2023-04-04T20:16:18.178Z,13.10
2023-04-04T20:19:08.184Z,13.40
2023-04-04T20:21:57.627Z,12.40
2023-04-04T20:24:47.160Z,11.10
2023-04-04T20:27:37.043Z,11.90
2023-04-04T20:30:25.645Z,12.00
2023-04-04T20:33:37.885Z,12.50
2023-04-04T20:36:26.294Z,12.20
2023-04-04T20:39:56.038Z,11.60
2023-04-04T20:42:44.657Z,11.90
2023-04-04T20:45:42.712Z,11.90
2023-04-04T20:48:39.593Z,11.40
2023-04-04T20:51:31.162Z,11.70
2023-04-04T20:54:19.651Z,10.90
2023-04-04T20:57:09.446Z,12.20
2023-04-04T20:59:58.010Z,10.70
2023-04-04T21:02:46.718Z,10.80
2023-04-04T21:05:38.624Z,11.30
2023-04-04T21:08:29.734Z,11.80
2023-04-04T21:11:24.712Z,11.90
2023-04-04T21:14:24.193Z,17.70
2023-04-04T21:17:12.957Z,18.10
2023-04-04T21:20:02.300Z,16.40
2023-04-04T21:22:51.494Z,14.10
2023-04-04T21:25:44.367Z,12.00
2023-04-04T21:28:34.820Z,11.80
2023-04-04T21:31:33.509Z,10.80
2023-04-04T21:34:24.863Z,11.00
2023-04-04T21:37:16.242Z,11.50
2023-04-04T21:42:55.912Z,11.40
2023-04-04T21:45:44.623Z,10.60
2023-04-04T21:48:33.348Z,12.00
2023-04-04T21:51:22.284Z,13.30
2023-04-04T21:54:11.067Z,13.10
2023-04-04T21:56:59.597Z,12.40
2023-04-04T21:59:48.737Z,14.20
2023-04-04T22:02:37.291Z,14.20
2023-04-04T22:05:36.322Z,13.70
2023-04-04T22:08:26.804Z,13.10
2023-04-04T22:11:19.020Z,14.40
2023-04-04T22:14:08.046Z,12.30
2023-04-04T22:16:58.995Z,12.10
2023-04-04T22:19:58.855Z,13.70
2023-04-04T22:22:47.827Z,11.70
2023-04-04T22:25:37.191Z,12.20
2023-04-04T22:28:26.077Z,12.00
2023-04-04T22:31:15.700Z,12.10
2023-04-04T22:34:06.648Z,12.40
2023-04-04T22:36:59.298Z,11.60
2023-04-04T22:39:50.118Z,11.30
2023-04-04T22:42:38.855Z,10.80
2023-04-04T22:45:29.762Z,11.10
2023-04-04T22:48:18.726Z,10.90
2023-04-04T22:51:07.648Z,10.70
2023-04-04T22:53:58.869Z,9.90
2023-04-04T22:56:48.087Z,10.90
2023-04-04T22:59:37.356Z,10.60
2023-04-04T23:02:26.420Z,10.90
2023-04-04T23:05:17.005Z,10.20
2023-04-04T23:08:06.074Z,10.40
2023-04-04T23:10:54.490Z,10.50
2023-04-04T23:13:43.311Z,10.80
2023-04-04T23:16:31.885Z,10.30
2023-04-04T23:19:21.594Z,10.10
2023-04-04T23:22:10.098Z,10.90
2023-04-04T23:24:59.113Z,11.20
2023-04-04T23:27:47.560Z,9.70
2023-04-04T23:30:36.355Z,11.70
2023-04-04T23:33:24.747Z,10.00
2023-04-04T23:36:13.560Z,10.50
2023-04-04T23:39:02.098Z,11.40
2023-04-04T23:41:51.308Z,11.70
2023-04-04T23:44:39.826Z,11.70
2023-04-04T23:47:28.982Z,11.10
2023-04-04T23:50:17.541Z,11.20
2023-04-04T23:53:06.558Z,12.00
2023-04-04T23:55:55.555Z,9.90
2023-04-04T23:58:44.391Z,11.10
